South Rockwood, Michigan
Current Conditions -  °F | °C
As of 5:14 PM on Thursday 23 Oct 2014 (Local Time) from KONZ Reporting Station
Clear Clear  
Wind Chill: 54°   Ceiling: Unl
Heat Index: 54°   Visibility: 10mi
Dew Point: 46°   Wind: 7mph
Humidity: 77%   Direction: 170°S
Pressure: 30.13"   Gusts: NA
Location:  42.06°N, 83.26°W
Report Text: KONZ 232114Z AUTO 17006KT 10SM CLR 12/08 A3013 RMK AO2
Loading
Personal Weather Stations






























Interactive Weather Map
Tropical Storm Tracking
New forecast layout! Learn more

10-Day Weather Forecast

Advertisements
Track Severe Weather on mobile